Time;durP1;ratioP1;P1;durP2;ratioP2;P2;SDS_P1;SDS_P2;PMS_P1;PMS_P2;Temp;Humidity;BMP_temperature;BMP_pressure;BME280_temperature;BME280_humidity;BME280_pressure;Samples;Min_cycle;Max_cycle;Signal;HPM_P1;HPM_P2
2022/01/25 00:10:39;;;;;;;;;12.67;11.67;;;;;21.49;49.29;102192.19;111365;1250;19629;-78
2022/01/25 00:24:24;;;;;;;;;12.00;12.00;;;;;21.50;49.16;102195.20;111530;1248;20017;-78
2022/01/25 00:27:05;;;;;;;;;17.00;15.33;;;;;21.49;49.11;102187.25;111503;1249;19504;-78
2022/01/25 00:29:46;;;;;;;;;16.00;13.00;;;;;21.48;49.03;102179.02;111523;1249;20416;-78
2022/01/25 00:32:13;;;;;;;;;13.00;10.00;;;;;21.50;49.03;102187.05;111440;1249;19131;-78
2022/01/25 00:34:39;;;;;;;;;14.00;13.00;;;;;21.49;49.22;102187.52;111536;1249;19349;-77
2022/01/25 00:37:05;;;;;;;;;15.33;13.67;;;;;21.49;49.22;102179.46;111507;1248;21681;-77
2022/01/25 00:39:31;;;;;;;;;13.00;12.50;;;;;21.49;49.09;102175.45;111508;1249;19646;-78
2022/01/25 00:41:57;;;;;;;;;10.67;10.00;;;;;21.49;49.16;102172.61;111529;1248;19763;-78
2022/01/25 00:44:24;;;;;;;;;13.00;12.00;;;;;21.49;49.08;102167.87;111505;1248;20037;-78
2022/01/25 00:46:51;;;;;;;;;12.00;9.67;;;;;21.49;49.13;102165.96;111535;1249;19248;-78
2022/01/25 00:49:26;;;;;;;;;12.67;10.67;;;;;21.50;49.15;102169.59;111521;1249;19407;-78
2022/01/25 00:52:05;;;;;;;;;10.67;10.00;;;;;21.49;49.16;102170.97;111494;1249;20295;-77
2022/01/25 00:54:33;;;;;;;;;12.00;12.00;;;;;21.49;49.06;102170.39;111510;1248;19204;-77
2022/01/25 00:57:00;;;;;;;;;10.00;10.00;;;;;21.49;49.03;102177.32;112020;1245;19491;-78
2022/01/25 00:59:26;;;;;;;;;13.00;12.00;;;;;21.48;49.13;102177.71;111990;1245;21481;-79
2022/01/25 01:01:52;;;;;;;;;12.00;10.67;;;;;21.49;48.88;102180.62;111960;1244;21645;-78
2022/01/25 01:04:19;;;;;;;;;13.00;12.00;;;;;21.48;48.92;102180.65;112080;1244;19251;-76
2022/01/25 01:06:46;;;;;;;;;12.00;12.00;;;;;21.48;48.99;102179.19;112032;1244;23511;-78
2022/01/25 01:09:12;;;;;;;;;12.00;10.00;;;;;21.47;48.85;102169.84;112098;1245;19270;-78
2022/01/25 01:11:43;;;;;;;;;9.00;8.50;;;;;21.48;49.09;102169.39;112061;1244;19429;-78
2022/01/25 01:14:17;;;;;;;;;13.00;11.67;;;;;21.48;48.85;102169.77;112104;1245;20212;-76
2022/01/25 01:17:02;;;;;;;;;9.33;9.33;;;;;21.48;49.08;102172.52;112046;1244;19071;-76
2022/01/25 01:36:28;;;;;;;;;12.33;11.33;;;;;21.47;48.81;102162.44;112077;1245;19603;-78
2022/01/25 01:41:52;;;;;;;;;9.67;9.00;;;;;21.47;48.92;102161.52;112103;1245;22304;-78
2022/01/25 01:44:18;;;;;;;;;9.33;9.33;;;;;21.47;48.85;102153.48;112066;1244;19476;-77
2022/01/25 01:46:58;;;;;;;;;10.00;9.33;;;;;21.47;48.69;102149.30;112051;1244;20230;-77
2022/01/25 01:49:27;;;;;;;;;11.33;11.33;;;;;21.47;48.60;102151.13;112023;1244;23355;-77
2022/01/25 01:51:53;;;;;;;;;11.33;9.33;;;;;21.47;48.66;102150.05;112118;1244;22774;-78
2022/01/25 01:54:19;;;;;;;;;12.67;9.00;;;;;21.47;48.71;102150.76;112034;1245;20243;-78
2022/01/25 01:56:45;;;;;;;;;11.00;10.00;;;;;21.47;48.75;102148.23;112079;1244;23800;-75
2022/01/25 01:59:11;;;;;;;;;12.00;10.00;;;;;21.46;48.74;102146.65;112046;1245;20974;-77
2022/01/25 02:01:37;;;;;;;;;11.33;10.00;;;;;21.46;48.61;102144.69;112070;1245;20232;-78
2022/01/25 02:04:03;;;;;;;;;12.00;12.00;;;;;21.45;48.63;102144.55;112094;1244;23156;-78
2022/01/25 02:06:30;;;;;;;;;9.00;9.00;;;;;21.46;48.53;102136.99;112098;1244;22926;-78
2022/01/25 02:08:56;;;;;;;;;9.00;9.00;;;;;21.46;48.47;102135.04;112059;1245;23218;-78
2022/01/25 02:11:22;;;;;;;;;13.33;10.67;;;;;21.45;48.50;102137.63;112081;1244;19228;-78
2022/01/25 02:13:48;;;;;;;;;12.00;12.00;;;;;21.45;48.58;102130.77;112093;1245;22213;-78
2022/01/25 02:16:30;;;;;;;;;12.67;11.33;;;;;21.45;48.53;102125.11;112082;1244;20351;-77
2022/01/25 02:24:26;;;;;;;;;10.00;9.00;;;;;21.45;48.51;102109.14;112078;1244;20265;-78
2022/01/25 02:26:55;;;;;;;;;13.00;11.33;;;;;21.45;48.55;102109.70;111964;1244;19081;-78
2022/01/25 02:29:21;;;;;;;;;8.67;8.67;;;;;21.45;48.47;102107.68;112089;1245;23160;-78
2022/01/25 02:31:50;;;;;;;;;10.67;10.67;;;;;21.44;48.44;102107.17;112150;1245;20409;-77
2022/01/25 02:34:19;;;;;;;;;14.00;12.67;;;;;21.45;48.62;102105.50;112091;1245;19266;-78
2022/01/25 02:36:46;;;;;;;;;13.00;12.00;;;;;21.45;48.53;102099.16;112105;1244;19654;-78
2022/01/25 02:39:12;;;;;;;;;12.33;12.00;;;;;21.45;48.48;102105.88;112074;1245;20152;-78
2022/01/25 02:41:38;;;;;;;;;13.33;12.00;;;;;21.45;48.47;102108.64;112121;1244;19636;-77
2022/01/25 02:44:07;;;;;;;;;12.00;12.00;;;;;21.43;48.61;102109.50;112091;1244;19605;-78
2022/01/25 02:49:18;;;;;;;;;12.33;12.00;;;;;21.44;48.37;102103.27;112120;1244;19221;-77
2022/01/25 02:51:44;;;;;;;;;13.00;13.00;;;;;21.43;48.44;102105.83;112109;1244;19697;-78
2022/01/25 02:54:10;;;;;;;;;18.00;12.00;;;;;21.44;48.40;102102.32;112076;1245;20038;-78
2022/01/25 02:56:37;;;;;;;;;15.00;10.00;;;;;21.43;48.38;102100.78;111986;1244;20114;-78
2022/01/25 02:59:03;;;;;;;;;13.67;12.67;;;;;21.42;48.40;102093.75;112100;1245;19502;-78
2022/01/25 03:01:29;;;;;;;;;12.50;11.00;;;;;21.43;48.51;102097.36;112077;1244;20243;-78
2022/01/25 03:03:55;;;;;;;;;15.33;14.00;;;;;21.42;48.41;102103.20;112098;1244;24030;-78
2022/01/25 03:06:21;;;;;;;;;13.00;12.00;;;;;21.43;48.37;102108.23;112077;1245;19359;-78
2022/01/25 03:08:48;;;;;;;;;11.00;11.00;;;;;21.43;48.50;102107.09;112084;1244;20244;-78
2022/01/25 03:11:14;;;;;;;;;10.67;10.00;;;;;21.44;48.21;102102.12;112099;1245;19328;-77
2022/01/25 03:13:50;;;;;;;;;10.67;10.00;;;;;21.43;48.37;102098.91;112042;1244;22934;-78
2022/01/25 03:16:20;;;;;;;;;9.00;9.00;;;;;21.43;48.47;102102.58;112110;1244;23664;-78
2022/01/25 03:18:48;;;;;;;;;12.00;12.00;;;;;21.44;48.19;102104.54;112072;1244;19283;-78
2022/01/25 03:21:19;;;;;;;;;13.67;12.00;;;;;21.44;48.23;102103.06;112103;1244;19789;-78
2022/01/25 03:23:46;;;;;;;;;12.67;12.33;;;;;21.44;48.32;102103.72;112087;1244;20284;-76
2022/01/25 03:26:12;;;;;;;;;12.00;12.00;;;;;21.44;48.48;102092.91;112088;1244;23005;-76
2022/01/25 03:28:39;;;;;;;;;12.00;10.00;;;;;21.44;48.30;102088.91;112067;1244;22153;-78
2022/01/25 03:31:04;;;;;;;;;13.67;10.00;;;;;21.43;48.31;102080.77;112118;1244;20236;-79
2022/01/25 03:33:31;;;;;;;;;12.00;10.00;;;;;21.43;48.28;102078.01;112101;1245;19173;-78
2022/01/25 03:35:57;;;;;;;;;13.00;9.00;;;;;21.43;48.25;102076.36;111987;1245;20372;-78
2022/01/25 03:38:23;;;;;;;;;9.67;9.33;;;;;21.43;48.37;102075.45;112094;1245;22425;-79
2022/01/25 03:40:49;;;;;;;;;14.00;13.00;;;;;21.43;48.36;102069.64;112092;1245;23607;-77
2022/01/25 03:43:18;;;;;;;;;10.00;10.00;;;;;21.43;48.17;102065.45;112101;1245;23135;-77
2022/01/25 03:45:56;;;;;;;;;9.67;9.00;;;;;21.43;48.19;102067.27;112065;1245;22502;-78
2022/01/25 03:51:03;;;;;;;;;12.00;10.00;;;;;21.44;48.29;102048.52;111408;1250;19493;-75
2022/01/25 03:53:29;;;;;;;;;11.00;9.67;;;;;21.43;48.07;102053.83;111597;1250;20378;-76
2022/01/25 03:55:56;;;;;;;;;9.67;9.00;;;;;21.43;48.30;102056.04;111717;1250;22535;-76
2022/01/25 03:58:22;;;;;;;;;10.00;9.00;;;;;21.43;48.29;102054.00;111583;1250;19435;-80
2022/01/25 04:00:49;;;;;;;;;10.00;9.00;;;;;21.44;48.25;102049.91;111344;1251;20365;-78
2022/01/25 04:03:21;;;;;;;;;8.00;8.00;;;;;21.44;48.07;102047.73;111370;1250;19229;-77
2022/01/25 04:05:51;;;;;;;;;10.00;9.00;;;;;21.43;48.17;102037.86;111325;1249;19840;-77
2022/01/25 04:08:17;;;;;;;;;9.00;9.00;;;;;21.43;48.16;102042.58;111335;1251;20280;-77
2022/01/25 04:10:43;;;;;;;;;9.00;9.00;;;;;21.42;48.29;102035.23;111355;1250;19263;-75
2022/01/25 04:13:10;;;;;;;;;10.00;9.00;;;;;21.42;48.25;102027.39;111207;1251;22947;-79
2022/01/25 04:15:39;;;;;;;;;10.00;9.00;;;;;21.42;48.19;102026.34;111364;1250;20505;-78
2022/01/25 04:18:21;;;;;;;;;9.00;9.00;;;;;21.42;48.29;102028.69;111348;1250;19101;-77
2022/01/25 04:20:57;;;;;;;;;11.00;9.00;;;;;21.41;48.10;102027.66;111339;1250;19322;-76
2022/01/25 04:26:10;;;;;;;;;9.00;8.00;;;;;21.41;48.06;102025.33;111369;1250;23145;-78
2022/01/25 04:28:36;;;;;;;;;7.33;6.00;;;;;21.41;48.12;102022.58;111638;1245;19820;-78
2022/01/25 04:31:02;;;;;;;;;6.00;6.00;;;;;21.42;48.18;102013.64;112083;1244;21395;-78
2022/01/25 04:33:39;;;;;;;;;10.00;9.00;;;;;21.42;48.19;102009.45;112106;1244;19254;-77
2022/01/25 04:36:24;;;;;;;;;8.67;7.33;;;;;21.41;48.11;102011.84;112089;1245;19469;-78
2022/01/25 04:49:52;;;;;;;;;8.00;8.00;;;;;21.41;48.17;102019.30;112098;1244;19272;-77
2022/01/25 04:52:22;;;;;;;;;8.00;7.33;;;;;21.41;48.02;102018.58;112046;1244;19472;-78
2022/01/25 04:54:55;;;;;;;;;10.00;9.00;;;;;21.41;48.00;102011.73;112062;1245;23699;-78
2022/01/25 05:00:05;;;;;;;;;6.00;6.00;;;;;21.42;47.94;102011.77;112103;1244;19499;-78
2022/01/25 05:02:43;;;;;;;;;8.00;8.00;;;;;21.41;47.95;102013.33;112119;1245;23119;-78
2022/01/25 05:05:14;;;;;;;;;8.00;8.00;;;;;21.41;48.24;102009.30;112071;1244;23136;-77
2022/01/25 05:07:47;;;;;;;;;6.67;6.00;;;;;21.41;47.90;102008.04;112090;1244;19410;-78
2022/01/25 05:10:14;;;;;;;;;8.00;8.00;;;;;21.42;48.06;102009.08;112099;1244;20995;-76
2022/01/25 05:12:44;;;;;;;;;8.33;7.33;;;;;21.41;47.82;102006.79;112091;1244;19248;-78
2022/01/25 05:15:22;;;;;;;;;8.00;8.00;;;;;21.41;48.07;102008.24;112091;1245;19511;-78
2022/01/25 05:18:01;;;;;;;;;7.00;7.00;;;;;21.41;48.11;102012.81;112069;1245;20445;-79
2022/01/25 05:23:13;;;;;;;;;7.33;6.67;;;;;21.40;48.07;102004.10;112092;1245;19396;-78
2022/01/25 05:25:40;;;;;;;;;9.67;8.00;;;;;21.41;48.09;102008.27;112032;1244;23684;-78
2022/01/25 05:28:06;;;;;;;;;6.67;5.67;;;;;21.40;47.94;102012.30;112124;1244;19369;-76
2022/01/25 05:30:32;;;;;;;;;9.00;9.00;;;;;21.41;48.08;102005.73;112099;1244;19294;-77
2022/01/25 05:32:58;;;;;;;;;8.33;8.33;;;;;21.41;48.04;101999.54;112081;1244;20228;-77
2022/01/25 05:35:24;;;;;;;;;7.00;7.00;;;;;21.41;47.76;101995.19;112109;1244;18917;-79
2022/01/25 05:37:50;;;;;;;;;6.00;6.00;;;;;21.40;47.90;101993.76;112026;1244;20655;-78
2022/01/25 05:40:27;;;;;;;;;7.00;7.00;;;;;21.40;48.04;102000.12;112090;1244;23546;-78
2022/01/25 05:45:50;;;;;;;;;6.00;6.00;;;;;21.41;47.97;101993.52;112087;1244;19559;-77
2022/01/25 05:48:17;;;;;;;;;8.00;8.00;;;;;21.41;48.00;101986.09;112125;1244;20367;-77
2022/01/25 05:50:43;;;;;;;;;9.00;8.00;;;;;21.40;47.79;101985.73;112055;1244;19299;-77
2022/01/25 05:53:09;;;;;;;;;8.00;8.00;;;;;21.41;47.91;101977.34;112058;1244;19174;-79
2022/01/25 05:55:36;;;;;;;;;8.00;8.00;;;;;21.40;47.82;101967.98;112097;1245;24572;-78
2022/01/25 05:58:02;;;;;;;;;8.33;6.67;;;;;21.41;47.85;101973.56;112068;1244;19219;-78
2022/01/25 06:00:28;;;;;;;;;8.67;6.67;;;;;21.40;47.79;101972.84;112114;1245;19392;-78
2022/01/25 06:02:55;;;;;;;;;8.00;7.00;;;;;21.40;47.91;101974.09;112060;1245;19933;-78
2022/01/25 06:05:23;;;;;;;;;7.33;6.00;;;;;21.40;48.01;101964.86;112097;1244;19396;-78
2022/01/25 06:07:49;;;;;;;;;9.00;8.00;;;;;21.40;47.81;101965.75;112098;1245;19673;-78
2022/01/25 06:10:15;;;;;;;;;9.00;8.00;;;;;21.40;47.85;101963.08;112110;1244;20177;-77
2022/01/25 06:12:44;;;;;;;;;6.67;6.00;;;;;21.40;47.73;101964.54;112103;1244;19363;-79
2022/01/25 06:15:10;;;;;;;;;5.33;5.33;;;;;21.40;47.82;101961.64;112095;1245;19615;-78
2022/01/25 06:17:36;;;;;;;;;5.50;5.50;;;;;21.39;47.93;101959.48;112084;1245;19995;-80
2022/01/25 06:20:02;;;;;;;;;9.33;8.00;;;;;21.39;47.81;101957.00;112105;1245;19235;-78
2022/01/25 06:22:28;;;;;;;;;6.67;6.67;;;;;21.39;47.84;101957.16;112130;1244;22686;-77
2022/01/25 06:24:55;;;;;;;;;5.00;5.00;;;;;21.39;47.76;101954.23;112085;1243;21210;-78
2022/01/25 06:27:21;;;;;;;;;8.00;8.00;;;;;21.39;48.11;101955.50;112085;1245;19368;-78
2022/01/25 06:29:47;;;;;;;;;6.00;6.00;;;;;21.38;47.98;101953.21;112107;1244;19525;-78
2022/01/25 06:32:14;;;;;;;;;8.00;6.00;;;;;21.38;47.78;101947.78;112096;1245;23127;-77
2022/01/25 06:34:40;;;;;;;;;8.67;8.00;;;;;21.38;47.83;101949.05;112060;1245;22945;-78
2022/01/25 06:37:06;;;;;;;;;8.00;8.00;;;;;21.38;47.75;101954.91;112073;1244;19199;-77
2022/01/25 06:39:32;;;;;;;;;8.00;8.00;;;;;21.38;47.66;101961.42;112059;1245;22731;-76
2022/01/25 06:41:58;;;;;;;;;5.33;5.00;;;;;21.38;47.98;101963.58;112117;1245;19248;-76
2022/01/25 06:44:25;;;;;;;;;8.33;6.67;;;;;21.38;47.88;101966.88;112092;1245;19400;-76
2022/01/25 06:46:51;;;;;;;;;7.00;7.00;;;;;21.39;47.94;101959.92;112108;1244;20149;-77
2022/01/25 06:49:17;;;;;;;;;6.00;6.00;;;;;21.39;47.70;101970.02;112065;1244;19212;-78
2022/01/25 06:51:43;;;;;;;;;5.00;5.00;;;;;21.40;47.83;101969.61;112035;1245;20403;-77
2022/01/25 06:54:09;;;;;;;;;6.00;5.33;;;;;21.40;47.86;101968.67;112149;1245;20353;-76
2022/01/25 06:56:35;;;;;;;;;6.00;6.00;;;;;21.42;47.63;101965.02;112048;1244;23285;-74
2022/01/25 06:59:01;;;;;;;;;7.33;6.00;;;;;21.45;47.88;101964.40;111992;1245;19624;-78
2022/01/25 07:01:27;;;;;;;;;8.00;8.00;;;;;21.47;48.03;101965.97;111965;1245;20030;-77
2022/01/25 07:03:54;;;;;;;;;5.50;5.50;;;;;21.48;48.15;101972.23;112033;1244;19022;-77
2022/01/25 07:06:20;;;;;;;;;6.67;6.00;;;;;21.50;48.25;101974.56;112083;1245;19340;-77
2022/01/25 07:08:46;;;;;;;;;7.00;6.00;;;;;21.53;48.42;101974.13;111992;1244;20245;-77
2022/01/25 07:11:14;;;;;;;;;7.33;7.33;;;;;21.55;48.78;101967.19;111995;1244;19128;-77
2022/01/25 07:13:41;;;;;;;;;8.00;6.00;;;;;21.60;48.92;101969.81;112017;1245;19397;-77
2022/01/25 07:16:07;;;;;;;;;9.50;6.00;;;;;21.63;49.82;101974.06;111972;1245;20181;-77
2022/01/25 07:18:34;;;;;;;;;6.00;6.00;;;;;21.68;50.29;101981.04;112031;1245;19157;-76
2022/01/25 07:21:00;;;;;;;;;8.00;6.00;;;;;21.72;50.82;101987.14;112073;1245;19411;-77
2022/01/25 07:23:26;;;;;;;;;6.67;6.00;;;;;21.74;51.06;101984.90;111976;1244;20340;-77
2022/01/25 07:25:53;;;;;;;;;11.67;9.00;;;;;21.76;52.28;101982.40;111977;1244;19685;-76
2022/01/25 07:28:19;;;;;;;;;9.00;8.00;;;;;21.77;52.52;101974.60;111923;1245;20808;-76
2022/01/25 07:30:45;;;;;;;;;10.00;9.00;;;;;21.77;52.91;101975.39;111880;1245;19992;-76
2022/01/25 07:33:11;;;;;;;;;9.00;8.00;;;;;21.76;52.70;101969.49;111935;1245;19651;-76
2022/01/25 07:35:37;;;;;;;;;8.50;8.50;;;;;21.76;52.82;101967.26;111974;1244;19191;-77
2022/01/25 07:38:03;;;;;;;;;6.00;6.00;;;;;21.81;52.95;101968.01;111907;1245;23480;-77
2022/01/25 07:40:30;;;;;;;;;9.67;9.00;;;;;21.82;52.59;101962.08;112009;1244;19336;-78
2022/01/25 07:42:57;;;;;;;;;7.00;7.00;;;;;21.79;52.42;101958.96;111982;1244;19605;-77
2022/01/25 07:45:24;;;;;;;;;9.00;9.00;;;;;21.76;52.49;101956.37;112031;1245;20418;-77
2022/01/25 07:47:50;;;;;;;;;10.00;9.00;;;;;21.77;52.59;101955.89;112015;1244;19301;-77
2022/01/25 07:50:17;;;;;;;;;10.00;9.00;;;;;21.77;52.21;101959.39;112042;1244;19389;-78
2022/01/25 07:52:43;;;;;;;;;10.67;9.67;;;;;21.76;52.36;101959.44;112061;1245;20152;-77
2022/01/25 07:55:09;;;;;;;;;8.67;8.00;;;;;21.76;51.82;101957.09;112011;1244;19253;-78
2022/01/25 07:57:36;;;;;;;;;12.50;12.50;;;;;21.76;51.56;101951.85;112094;1244;19371;-77
2022/01/25 08:00:02;;;;;;;;;10.00;10.00;;;;;21.76;51.54;101949.27;111994;1245;22978;-80
2022/01/25 08:02:28;;;;;;;;;10.00;10.00;;;;;21.76;51.70;101950.70;112040;1244;19118;-77
2022/01/25 08:04:56;;;;;;;;;9.33;9.33;;;;;21.77;52.03;101953.88;112065;1245;19416;-78
2022/01/25 08:07:22;;;;;;;;;13.00;12.33;;;;;21.77;52.11;101954.31;112085;1244;20194;-76
2022/01/25 08:09:48;;;;;;;;;10.00;10.00;;;;;21.78;51.64;101953.05;112052;1244;23815;-78
2022/01/25 08:12:22;;;;;;;;;13.00;11.00;;;;;21.89;51.13;101951.09;112084;1245;19666;-76
2022/01/25 08:14:48;;;;;;;;;12.00;10.00;;;;;21.86;50.82;101944.73;112549;1244;22743;-78
2022/01/25 08:17:17;;;;;;;;;11.67;9.67;;;;;21.82;51.20;101938.86;112137;1244;20137;-77
2022/01/25 08:19:44;;;;;;;;;12.67;12.00;;;;;21.81;51.72;101934.93;111992;1245;23027;-77
2022/01/25 08:22:10;;;;;;;;;14.00;13.00;;;;;21.79;51.78;101936.55;112009;1244;20344;-77
2022/01/25 08:24:36;;;;;;;;;13.50;13.00;;;;;21.76;51.72;101934.52;112051;1245;19292;-80
2022/01/25 08:27:03;;;;;;;;;16.33;14.67;;;;;21.61;51.18;101928.72;112100;1244;19501;-80
2022/01/25 08:29:29;;;;;;;;;14.00;12.00;;;;;21.51;50.50;101928.81;112011;1245;21545;-78
2022/01/25 08:31:55;;;;;;;;;13.67;12.67;;;;;21.51;50.61;101928.66;112059;1244;22994;-78
2022/01/25 08:34:21;;;;;;;;;11.00;9.00;;;;;21.56;49.76;101930.88;111926;1244;19401;-78
2022/01/25 08:36:48;;;;;;;;;9.33;9.33;;;;;21.65;49.82;101922.33;111986;1245;20363;-77
2022/01/25 08:39:14;;;;;;;;;12.67;12.33;;;;;21.69;49.79;101919.63;112048;1245;19669;-77
2022/01/25 08:41:40;;;;;;;;;12.00;10.00;;;;;21.71;49.73;101917.95;112013;1244;19436;-76
2022/01/25 08:44:06;;;;;;;;;12.67;12.00;;;;;21.70;49.11;101917.66;111944;1244;20221;-77
2022/01/25 08:46:32;;;;;;;;;13.00;12.00;;;;;21.68;49.14;101908.25;111972;1244;19155;-78
2022/01/25 08:48:59;;;;;;;;;12.00;12.00;;;;;21.70;49.37;101908.21;111719;1244;19614;-78
2022/01/25 08:51:25;;;;;;;;;11.67;10.33;;;;;21.70;49.32;101905.64;111767;1245;20153;-76
2022/01/25 08:53:51;;;;;;;;;9.50;9.00;;;;;21.71;49.09;101908.61;111812;1244;22080;-78
2022/01/25 08:56:17;;;;;;;;;13.00;10.33;;;;;21.72;49.20;101913.27;111919;1244;19656;-77
2022/01/25 08:58:44;;;;;;;;;11.00;11.00;;;;;21.73;48.93;101913.53;112063;1245;20416;-77
2022/01/25 09:01:10;;;;;;;;;12.67;10.67;;;;;21.74;48.97;101915.48;112029;1245;19316;-78
2022/01/25 09:03:37;;;;;;;;;10.50;9.00;;;;;21.75;49.27;101916.08;111917;1244;19476;-76
2022/01/25 09:06:03;;;;;;;;;13.00;10.00;;;;;21.75;49.26;101912.63;112014;1245;20163;-79
2022/01/25 09:08:29;;;;;;;;;13.00;12.00;;;;;21.75;49.47;101910.10;111988;1244;22951;-78
2022/01/25 09:10:58;;;;;;;;;9.67;9.00;;;;;21.75;49.36;101912.41;111905;1244;19524;-78
2022/01/25 09:13:25;;;;;;;;;10.67;9.67;;;;;21.73;49.02;101912.98;111812;1245;20241;-78
2022/01/25 09:15:51;;;;;;;;;11.33;10.00;;;;;21.72;48.67;101911.48;111971;1245;19288;-72
2022/01/25 09:18:17;;;;;;;;;13.00;10.00;;;;;21.71;48.90;101913.90;111946;1244;19364;-77
2022/01/25 09:20:44;;;;;;;;;10.00;9.33;;;;;21.74;49.39;101911.66;111555;1245;20337;-75
2022/01/25 09:23:10;;;;;;;;;12.00;10.00;;;;;21.73;49.75;101909.30;111968;1245;23161;-77
2022/01/25 09:25:36;;;;;;;;;10.00;9.00;;;;;21.75;49.90;101909.89;111949;1245;24828;-77
2022/01/25 09:28:02;;;;;;;;;16.50;12.50;;;;;21.75;50.01;101913.92;111891;1245;22617;-76
2022/01/25 09:30:28;;;;;;;;;10.00;9.00;;;;;21.73;50.19;101912.51;111866;1245;19691;-76
2022/01/25 09:32:55;;;;;;;;;10.00;9.33;;;;;21.74;50.08;101917.60;111933;1245;19451;-76
2022/01/25 09:35:21;;;;;;;;;11.33;9.00;;;;;21.74;50.10;101912.31;111963;1244;20750;-76
2022/01/25 09:37:47;;;;;;;;;13.00;10.00;;;;;21.74;50.27;101915.31;111951;1245;19213;-76
2022/01/25 09:40:14;;;;;;;;;9.67;8.33;;;;;21.74;49.91;101917.11;111981;1245;22934;-76
2022/01/25 09:42:40;;;;;;;;;13.00;12.00;;;;;21.72;49.91;101920.35;111915;1244;20332;-77
2022/01/25 09:45:06;;;;;;;;;12.50;9.50;;;;;21.71;49.59;101916.86;111873;1244;19203;-76
2022/01/25 09:47:32;;;;;;;;;12.50;10.00;;;;;21.74;49.82;101916.85;111949;1244;19534;-77
2022/01/25 09:49:58;;;;;;;;;10.00;9.00;;;;;21.74;49.97;101914.02;111950;1244;23334;-76
2022/01/25 09:52:24;;;;;;;;;13.00;11.00;;;;;21.74;49.85;101907.58;111985;1245;19273;-76
2022/01/25 09:54:51;;;;;;;;;34.33;33.00;;;;;21.78;49.78;101903.04;111960;1245;19468;-77
2022/01/25 09:57:17;;;;;;;;;127.00;112.33;;;;;21.71;49.31;101909.79;111811;1244;20182;-76
2022/01/25 09:59:44;;;;;;;;;299.75;249.50;;;;;21.45;48.29;101910.30;111765;1244;19187;-75
2022/01/25 10:02:10;;;;;;;;;239.75;200.50;;;;;21.26;47.80;101910.95;111792;1245;19613;-75
2022/01/25 10:04:38;;;;;;;;;195.25;161.75;;;;;21.27;47.26;101916.64;112066;1245;20238;-77
2022/01/25 10:07:05;;;;;;;;;189.75;159.00;;;;;21.28;47.04;101910.36;112066;1245;22926;-78
2022/01/25 10:09:31;;;;;;;;;166.25;142.50;;;;;21.28;46.43;101908.79;112064;1245;23196;-76
2022/01/25 10:11:57;;;;;;;;;150.00;130.67;;;;;21.25;45.90;101909.27;112065;1245;20155;-75
2022/01/25 10:14:25;;;;;;;;;133.75;119.75;;;;;21.22;45.69;101905.73;112057;1245;19061;-76
2022/01/25 10:16:53;;;;;;;;;122.25;107.00;;;;;21.20;45.14;101904.45;112074;1245;19603;-77
2022/01/25 10:19:19;;;;;;;;;106.00;90.00;;;;;21.17;44.80;101901.99;112077;1245;20594;-76
2022/01/25 10:21:48;;;;;;;;;104.33;89.33;;;;;21.15;44.67;101901.86;112047;1245;19107;-76
2022/01/25 10:24:14;;;;;;;;;100.00;82.00;;;;;21.12;44.50;101901.45;111883;1244;22431;-77
2022/01/25 10:26:41;;;;;;;;;98.00;74.67;;;;;21.10;44.28;101899.45;112048;1244;20022;-77
2022/01/25 10:29:07;;;;;;;;;90.00;67.50;;;;;21.07;44.17;101901.70;112044;1245;18985;-76
2022/01/25 10:31:32;;;;;;;;;86.50;67.00;;;;;21.06;44.39;101899.24;112051;1245;19218;-75
2022/01/25 10:33:59;;;;;;;;;86.67;64.00;;;;;21.27;44.68;101898.71;112057;1245;21465;-72
2022/01/25 10:36:25;;;;;;;;;81.67;62.67;;;;;21.60;44.21;101890.08;111996;1245;21136;-76
2022/01/25 10:38:51;;;;;;;;;75.50;59.00;;;;;21.85;43.72;101884.95;112018;1245;19581;-76
2022/01/25 10:41:18;;;;;;;;;75.33;57.33;;;;;21.93;43.26;101888.44;111986;1245;20225;-77
2022/01/25 10:43:44;;;;;;;;;63.00;50.33;;;;;21.96;42.58;101887.89;112023;1244;23764;-76
2022/01/25 10:46:10;;;;;;;;;57.00;45.50;;;;;21.64;42.02;101889.12;112027;1245;19443;-77
2022/01/25 10:48:36;;;;;;;;;57.00;47.00;;;;;21.33;41.92;101888.29;112011;1245;20003;-77
2022/01/25 10:51:02;;;;;;;;;56.00;44.67;;;;;21.09;42.08;101882.64;112039;1244;19349;-76
2022/01/25 10:53:29;;;;;;;;;58.00;47.00;;;;;20.97;42.29;101872.37;111987;1244;19508;-76
2022/01/25 10:55:55;;;;;;;;;45.00;41.00;;;;;20.88;42.13;101874.77;112053;1244;20301;-76
2022/01/25 10:58:21;;;;;;;;;42.00;37.00;;;;;20.79;42.17;101871.55;112028;1244;23467;-77
2022/01/25 11:00:49;;;;;;;;;39.67;34.33;;;;;20.74;42.32;101868.48;112050;1244;19443;-76
2022/01/25 11:03:15;;;;;;;;;42.00;36.33;;;;;20.70;42.24;101868.52;112056;1244;20717;-77
2022/01/25 11:05:43;;;;;;;;;36.67;33.00;;;;;20.66;42.20;101870.59;111965;1245;19353;-76
2022/01/25 11:08:09;;;;;;;;;38.00;33.00;;;;;20.62;42.04;101875.43;111958;1245;19522;-76
2022/01/25 11:10:36;;;;;;;;;37.00;28.00;;;;;20.60;42.10;101871.86;112048;1244;20011;-77
2022/01/25 11:13:05;;;;;;;;;33.00;32.00;;;;;20.59;41.72;101873.29;112182;1245;19487;-75
2022/01/25 11:15:30;;;;;;;;;40.67;31.67;;;;;20.58;41.90;101867.88;112003;1244;19514;-76
2022/01/25 11:17:56;;;;;;;;;31.50;28.50;;;;;20.65;41.96;101866.14;112016;1244;21285;-76
2022/01/25 11:20:22;;;;;;;;;35.00;28.00;;;;;20.78;41.76;101859.86;112032;1245;19250;-76
2022/01/25 11:22:48;;;;;;;;;29.67;27.33;;;;;20.88;41.81;101855.45;112044;1244;19505;-77
2022/01/25 11:25:15;;;;;;;;;29.50;25.00;;;;;20.96;41.91;101848.67;111977;1244;24217;-77
2022/01/25 11:27:41;;;;;;;;;30.00;27.00;;;;;21.02;42.33;101843.88;112047;1245;19418;-77
2022/01/25 11:30:07;;;;;;;;;31.67;29.00;;;;;21.07;42.28;101845.95;108159;1245;5038499;-77
2022/01/25 11:32:34;;;;;;;;;27.67;24.00;;;;;21.11;42.53;101847.73;112055;1245;19091;-77
2022/01/25 11:35:00;;;;;;;;;28.67;27.33;;;;;21.13;42.90;101838.42;112099;1245;22998;-76
2022/01/25 11:37:26;;;;;;;;;30.00;25.50;;;;;21.16;42.79;101831.28;112024;1244;19500;-73
2022/01/25 11:39:52;;;;;;;;;31.00;28.00;;;;;21.17;42.96;101830.04;112012;1245;19998;-77
2022/01/25 11:42:18;;;;;;;;;32.00;31.00;;;;;21.19;43.51;101830.78;112005;1244;18980;-76
2022/01/25 11:44:44;;;;;;;;;28.00;27.00;;;;;21.20;43.50;101828.98;112064;1244;19489;-76
2022/01/25 11:47:11;;;;;;;;;26.67;24.00;;;;;21.23;43.75;101828.75;112013;1244;20172;-77
2022/01/25 11:49:37;;;;;;;;;24.00;23.33;;;;;21.24;43.82;101826.63;112037;1244;19419;-77
2022/01/25 11:52:03;;;;;;;;;24.00;22.00;;;;;21.25;44.03;101827.23;112038;1245;23014;-76
2022/01/25 11:54:30;;;;;;;;;27.67;26.33;;;;;21.26;44.24;101823.30;112043;1244;23006;-76
2022/01/25 11:56:56;;;;;;;;;24.00;22.00;;;;;21.27;44.42;101824.30;112018;1244;19200;-76
2022/01/25 11:59:22;;;;;;;;;26.00;25.00;;;;;21.31;44.55;101818.13;112051;1245;23767;-76
2022/01/25 12:01:48;;;;;;;;;28.00;27.00;;;;;21.39;44.53;101822.30;111987;1244;20098;-76
2022/01/25 12:04:15;;;;;;;;;28.00;23.50;;;;;21.43;44.81;101824.70;112013;1244;19204;-76
2022/01/25 12:06:44;;;;;;;;;24.33;21.33;;;;;21.46;44.98;101827.66;112014;1244;19500;-77
2022/01/25 12:09:16;;;;;;;;;26.33;24.67;;;;;21.47;45.11;101825.06;112026;1244;20355;-75
2022/01/25 12:11:45;;;;;;;;;23.67;22.00;;;;;21.49;45.37;101827.21;112039;1245;19327;-76
2022/01/25 12:14:13;;;;;;;;;27.33;25.00;;;;;21.45;45.42;101819.09;112160;1244;20855;-74
2022/01/25 12:16:43;;;;;;;;;27.33;25.00;;;;;21.49;45.56;101820.84;112081;1244;23871;-76
2022/01/25 12:19:09;;;;;;;;;28.00;25.33;;;;;21.43;45.86;101814.91;112020;1245;19532;-76
2022/01/25 12:21:35;;;;;;;;;29.00;25.00;;;;;21.30;45.67;101815.85;112046;1244;21908;-74